Richton Park, IL (60471)

7:17 AM CDT en Mayo 28, 2017 (GMT -0500)
Miami at Blackhawk | | Change Station

Alt 726 ft 41.48 °N, 87.70 °W | Updated 20 seconds ago

Muy nublado
Muy nublado
61.7 ° F
Sensación térmica 61.7 ° F
N
0.0
Viento Variable Viento desde ESE

Hoy
Alta -- | Baja -- ° F
--% Posibilidad de precipitaciones
Ayer
Alta -- | Baja -- ° F
Precip. -- pul
Presión 29.74 pul
Visibilidad 5.0 Millas
Nubes Despejado
Punto de rocío 58 ° F
Humedad 88%
Precipitaciones 0.00 pul
Espesor de la nieve No disponible.
5:21 AM 8:15 PM
Creciente, 11% visible
METAR KIGQ 281155Z AUTO 00000KT 5SM BR CLR 14/14 A2974 RMK AO2 T01420142 10150 20119
Presión 29.74 pul
Visibilidad 5.0 Millas
Nubes Despejado
Punto de rocío 58 ° F
Humedad 88%
Precipitaciones 0.00 pul
Espesor de la nieve No disponible.
5:21 AM 8:15 PM
Creciente, 11% visible
METAR KIGQ 281155Z AUTO 00000KT 5SM BR CLR 14/14 A2974 RMK AO2 T01420142 10150 20119

Get Severe Weather Alerts

Thanks for signing up!

Be on the lookout for a verification email in your inbox.

You'll start receiving the daily forecast at 6 AM.

×

10-Day Weather Forecast

Almanac

Astronomía

May. 28, 2017 Salida Puesta
Hora real
Crepúsculo civil
Crepúsculo náutico
Crepúsculo astronómico
Luna
Horas de luz
Horas de luz
Tomorrow will be .
, % of the Moon is Illuminated

Extremos de hoy

Máximos del estado Bajos del estado

Community

WunderPhotos

Category 6

Welcome to Category 6. This is the collective home for Weather Underground's featured writeups by Dr. Jeff Masters (right), Bob Henson (left), Chris Burt, and other regular contributors.

Nearby

Calidad del aire

  Calidad del aire Índice AQ Contaminante
Not available.

Grosos de nieve

Estación Profundido Altura

Actividad de terremotos

Ciudad Distance Mag. Tiempo y dato
Magnitud mínima muestra es 2,5.

Temperaturas de aguas costeras

Lugar Temperatura

Stations

Estaciones meteorológicas cercanas

Ubicación de la estación Temp. Vientos helados Punto de rocío Humedad Viento Precip. Alt Actualizado Tipo
                   

Watches & Warnings

There are currently no watches in effect.